^^
Grace C. Lehan Memorial Weather Station Historical Data
Daily Summary for July 27, 2021 Units:  Both    English   Metric
Daily Weekly Monthly Yearly
  High: Low: Average:
Temperature: 77.9 °F /  25.5 °C 65.2 °F /  18.4 °C 69.6 °F /  20.9 °C
Dew Point: 67.6 °F /  19.8 °C 54.6 °F /  12.6 °C 64.7 °F /  18.2 °C
Humidity: 97% 46% 86%
Wind Speed: 8.4mph /  13.5km/h - 1.2mph /  1.9km/h
Wind Gust: 21mph /  33.8km/h - -
Wind- - WNW
Pressure: 29.91 in /  1012.8 hPa 29.81 in /  1009.4 hPa -
Precipitation: 0.02 in /  0.51 mm    
 
 
Tabular Data for July 27, 2021
Time Temperature Dew Point Pressure Wind Wind Speed Wind Gust Humidity Rainfall Rate (Hourly) solar
00:04 67.7 °F /  19.8 °C 66.2 °F /  19 °C 29.81in /  1009.4hPa Calm     95% 0.01in /  0.25mm 0 W/m2
00:09 67.7 °F /  19.8 °C 66.2 °F /  19 °C 29.81in /  1009.4hPa Calm     95% 0.01in /  0.25mm 0 W/m2
00:14 67.7 °F /  19.8 °C 66.2 °F /  19 °C 29.82in /  1009.7hPa Calm     95% 0.01in /  0.25mm 0 W/m2
00:19 67.7 °F /  19.8 °C 66.2 °F /  19 °C 29.82in /  1009.7hPa Calm     95% 0.01in /  0.25mm 0 W/m2
00:24 67.8 °F /  19.9 °C 66.3 °F /  19.1 °C 29.82in /  1009.7hPa Calm     95% 0.01in /  0.25mm 0 W/m2
00:29 67.8 °F /  19.9 °C 66.3 °F /  19.1 °C 29.82in /  1009.7hPa West 0.1mph /  0.2km/h 3mph /  4.8km/h 95% 0.01in /  0.25mm 0 W/m2
00:34 67.8 °F /  19.9 °C 66.3 °F /  19.1 °C 29.82in /  1009.7hPa West 0.1mph /  0.2km/h 3mph /  4.8km/h 95% 0.01in /  0.25mm 0 W/m2
00:39 67.9 °F /  19.9 °C 66.5 °F /  19.2 °C 29.82in /  1009.7hPa Calm   3mph /  4.8km/h 95.2% 0.00in /  0mm 0 W/m2
00:44 67.9 °F /  19.9 °C 66.5 °F /  19.2 °C 29.81in /  1009.4hPa Calm   3mph /  4.8km/h 95.2% 0.00in /  0mm 0 W/m2
00:49 68 °F /  20 °C 66.8 °F /  19.3 °C 29.81in /  1009.4hPa West 0.1mph /  0.2km/h 3mph /  4.8km/h 96% 0.00in /  0mm 0 W/m2
00:54 68 °F /  20 °C 66.9 °F /  19.4 °C 29.81in /  1009.4hPa West 0.2mph /  0.3km/h 3mph /  4.8km/h 96% 0.00in /  0mm 0 W/m2
00:59 68.1 °F /  20.1 °C 66.9 °F /  19.4 °C 29.82in /  1009.7hPa West 0.2mph /  0.3km/h 5mph /  8km/h 96% 0.00in /  0mm 0 W/m2
01:04 68.1 °F /  20.1 °C 66.9 °F /  19.4 °C 29.82in /  1009.7hPa West 0.1mph /  0.2km/h 5mph /  8km/h 96% 0.00in /  0mm 0 W/m2
01:09 68.2 °F /  20.1 °C 67 °F /  19.4 °C 29.82in /  1009.7hPa Calm   2mph /  3.2km/h 96% 0.00in /  0mm 0 W/m2
01:14 68.2 °F /  20.1 °C 67 °F /  19.4 °C 29.82in /  1009.7hPa West 0.6mph /  1km/h 6mph /  9.7km/h 96% 0.00in /  0mm 0 W/m2
01:19 68.2 °F /  20.1 °C 67 °F /  19.4 °C 29.82in /  1009.7hPa West 0.2mph /  0.3km/h 6mph /  9.7km/h 96% 0.00in /  0mm 0 W/m2
01:24 68.2 °F /  20.1 °C 67 °F /  19.4 °C 29.82in /  1009.7hPa Calm   6mph /  9.7km/h 96% 0.00in /  0mm 0 W/m2
01:29 68.2 °F /  20.1 °C 67 °F /  19.4 °C 29.83in /  1010hPa Calm   6mph /  9.7km/h 96% 0.00in /  0mm 0 W/m2
01:34 68.2 °F /  20.1 °C 67 °F /  19.4 °C 29.83in /  1010hPa Calm   6mph /  9.7km/h 96% 0.00in /  0mm 0 W/m2
01:39 68.2 °F /  20.1 °C 67 °F /  19.4 °C 29.83in /  1010hPa Calm     96% 0.00in /  0mm 0 W/m2
01:44 68.2 °F /  20.1 °C 67 °F /  19.4 °C 29.83in /  1010hPa Calm     96% 0.00in /  0mm 0 W/m2
01:49 68.2 °F /  20.1 °C 67 °F /  19.4 °C 29.83in /  1010hPa Calm     96% 0.00in /  0mm 0 W/m2
01:54 68.2 °F /  20.1 °C 67 °F /  19.4 °C 29.83in /  1010hPa Calm     96% 0.00in /  0mm 0 W/m2
01:59 68.2 °F /  20.1 °C 67 °F /  19.4 °C 29.83in /  1010hPa Calm     96% 0.00in /  0mm 0 W/m2
02:04 68.3 °F /  20.2 °C 67.1 °F /  19.5 °C 29.83in /  1010hPa Calm     96% 0.00in /  0mm 0 W/m2
02:09 68.3 °F /  20.2 °C 67.1 °F /  19.5 °C 29.83in /  1010hPa Calm     96% 0.00in /  0mm 0 W/m2
02:14 68.3 °F /  20.2 °C 67.1 °F /  19.5 °C 29.83in /  1010hPa Calm     96% 0.00in /  0mm 0 W/m2
02:19 68.3 °F /  20.2 °C 67.1 °F /  19.5 °C 29.83in /  1010hPa Calm     96% 0.00in /  0mm 0 W/m2
02:24 68.3 °F /  20.2 °C 67.1 °F /  19.5 °C 29.83in /  1010hPa Calm     96% 0.00in /  0mm 0 W/m2
02:29 68.2 °F /  20.1 °C 67 °F /  19.4 °C 29.83in /  1010hPa Calm     96% 0.00in /  0mm 0 W/m2
02:34 68 °F /  20 °C 66.8 °F /  19.3 °C 29.83in /  1010hPa Calm     96% 0.00in /  0mm 0 W/m2
02:39 67.8 °F /  19.9 °C 66.6 °F /  19.2 °C 29.83in /  1010hPa Calm     96% 0.00in /  0mm 0 W/m2
02:44 67.5 °F /  19.7 °C 66.3 °F /  19.1 °C 29.83in /  1010hPa Calm     95.7% 0.00in /  0mm 0 W/m2
02:49 67.3 °F /  19.6 °C 65.8 °F /  18.8 °C 29.83in /  1010hPa Calm     95% 0.00in /  0mm 0 W/m2
02:54 67.1 °F /  19.5 °C 65.9 °F /  18.8 °C 29.83in /  1010hPa Calm     95.7% 0.00in /  0mm 0 W/m2
02:59 67.1 °F /  19.5 °C 65.9 °F /  18.8 °C 29.83in /  1010hPa Calm     96% 0.01in /  0.25mm 0 W/m2
03:04 67 °F /  19.4 °C 65.9 °F /  18.8 °C 29.83in /  1010hPa Calm     96% 0.01in /  0.25mm 0 W/m2
03:09 67 °F /  19.4 °C 65.8 °F /  18.8 °C 29.82in /  1009.7hPa Calm     96% 0.01in /  0.25mm 0 W/m2
03:14 66.9 °F /  19.4 °C 65.7 °F /  18.7 °C 29.82in /  1009.7hPa Calm     96% 0.01in /  0.25mm 0 W/m2
03:19 66.8 °F /  19.3 °C 65.6 °F /  18.7 °C 29.83in /  1010hPa Calm     96% 0.01in /  0.25mm 0 W/m2
03:24 66.8 °F /  19.3 °C 65.6 °F /  18.7 °C 29.83in /  1010hPa Calm     96% 0.01in /  0.25mm 0 W/m2
03:29 66.8 °F /  19.3 °C 65.6 °F /  18.7 °C 29.83in /  1010hPa Calm     96% 0.01in /  0.25mm 0 W/m2
03:34 66.8 °F /  19.3 °C 65.6 °F /  18.7 °C 29.83in /  1010hPa Calm     96% 0.01in /  0.25mm 0 W/m2
03:39 66.8 °F /  19.3 °C 65.6 °F /  18.7 °C 29.83in /  1010hPa Calm     96% 0.01in /  0.25mm 0 W/m2
03:44 66.8 °F /  19.3 °C 65.6 °F /  18.7 °C 29.83in /  1010hPa Calm     96% 0.01in /  0.25mm 0 W/m2
03:49 66.8 °F /  19.3 °C 65.6 °F /  18.7 °C 29.83in /  1010hPa Calm     96% 0.01in /  0.25mm 0 W/m2
03:54 66.8 °F /  19.3 °C 65.6 °F /  18.7 °C 29.83in /  1010hPa Calm     96% 0.01in /  0.25mm 0 W/m2
03:59 66.7 °F /  19.3 °C 65.6 °F /  18.7 °C 29.83in /  1010hPa Calm     96% 0.01in /  0.25mm 0 W/m2
04:00 66.7 °F /  19.3 °C 65.5 °F /  18.6 °C 29.82in /  1009.7hPa Calm     96% 0.01in /  0.25mm 0 W/m2
04:09 66.6 °F /  19.2 °C 65.4 °F /  18.6 °C 29.83in /  1010hPa Calm     96% 0.00in /  0mm 0 W/m2
04:14 66.5 °F /  19.2 °C 65.4 °F /  18.6 °C 29.83in /  1010hPa Calm     96% 0.00in /  0mm 0 W/m2
04:19 66.5 °F /  19.2 °C 65.3 °F /  18.5 °C 29.83in /  1010hPa Calm     96% 0.00in /  0mm 0 W/m2
04:24 66.5 °F /  19.2 °C 65.3 °F /  18.5 °C 29.83in /  1010hPa Calm     96% 0.00in /  0mm 0 W/m2
04:29 66.5 °F /  19.2 °C 65.4 °F /  18.6 °C 29.83in /  1010hPa Calm     96% 0.00in /  0mm 0 W/m2
04:34 66.5 °F /  19.2 °C 65.4 °F /  18.6 °C 29.83in /  1010hPa Calm     96% 0.01in /  0.25mm 0 W/m2
04:39 66.5 °F /  19.2 °C 65.4 °F /  18.6 °C 29.83in /  1010hPa Calm     96% 0.01in /  0.25mm 0 W/m2
04:44 66.5 °F /  19.2 °C 65.3 °F /  18.5 °C 29.83in /  1010hPa Calm     96% 0.01in /  0.25mm 0 W/m2
04:49 66.5 °F /  19.2 °C 65.3 °F /  18.5 °C 29.83in /  1010hPa Calm     96% 0.01in /  0.25mm 0 W/m2
04:54 66.5 °F /  19.2 °C 65.3 °F /  18.5 °C 29.82in /  1009.7hPa Calm     96% 0.01in /  0.25mm 0 W/m2
04:59 66.5 °F /  19.2 °C 65.3 °F /  18.5 °C 29.82in /  1009.7hPa Calm     96% 0.01in /  0.25mm 0 W/m2
05:04 66.5 °F /  19.2 °C 65.3 °F /  18.5 °C 29.82in /  1009.7hPa Calm     96% 0.01in /  0.25mm 0 W/m2
05:09 66.5 °F /  19.2 °C 65.3 °F /  18.5 °C 29.82in /  1009.7hPa Calm     96% 0.01in /  0.25mm 0 W/m2
05:14 66.5 °F /  19.2 °C 65.3 °F /  18.5 °C 29.82in /  1009.7hPa Calm     96% 0.01in /  0.25mm 0 W/m2
05:19 66.4 °F /  19.1 °C 65.3 °F /  18.5 °C 29.82in /  1009.7hPa Calm     96% 0.01in /  0.25mm 0 W/m2
05:24 66.4 °F /  19.1 °C 65.2 °F /  18.4 °C 29.83in /  1010hPa Calm     96% 0.01in /  0.25mm 0 W/m2
05:29 66.3 °F /  19.1 °C 65.1 °F /  18.4 °C 29.83in /  1010hPa Calm     96% 0.01in /  0.25mm 0 W/m2
05:34 66.3 °F /  19.1 °C 65.1 °F /  18.4 °C 29.83in /  1010hPa Calm     96% 0.01in /  0.25mm 0 W/m2
05:39 66.2 °F /  19 °C 65 °F /  18.3 °C 29.83in /  1010hPa Calm     96% 0.01in /  0.25mm 0 W/m2
05:44 66.1 °F /  18.9 °C 64.9 °F /  18.3 °C 29.84in /  1010.4hPa Calm     96% 0.01in /  0.25mm 0 W/m2
05:49 66 °F /  18.9 °C 64.8 °F /  18.2 °C 29.84in /  1010.4hPa Calm     96% 0.01in /  0.25mm 0 W/m2
05:54 65.8 °F /  18.8 °C 64.6 °F /  18.1 °C 29.84in /  1010.4hPa Calm     96% 0.01in /  0.25mm 5 W/m2
05:59 65.6 °F /  18.7 °C 64.4 °F /  18 °C 29.84in /  1010.4hPa Calm     96% 0.01in /  0.25mm 7 W/m2
06:04 65.4 °F /  18.6 °C 64.2 °F /  17.9 °C 29.85in /  1010.7hPa Calm     96% 0.01in /  0.25mm 11 W/m2
06:09 65.3 °F /  18.5 °C 64.1 °F /  17.8 °C 29.85in /  1010.7hPa Calm     96% 0.00in /  0mm 21 W/m2
06:14 65.2 °F /  18.4 °C 64 °F /  17.8 °C 29.85in /  1010.7hPa Calm     96% 0.00in /  0mm 25 W/m2
06:19 65.2 °F /  18.4 °C 64 °F /  17.8 °C 29.85in /  1010.7hPa Calm     96% 0.00in /  0mm 28 W/m2
06:24 65.3 °F /  18.5 °C 64.1 °F /  17.8 °C 29.85in /  1010.7hPa Calm     96% 0.00in /  0mm 35 W/m2
06:29 65.3 °F /  18.5 °C 64.1 °F /  17.8 °C 29.85in /  1010.7hPa Calm     96% 0.00in /  0mm 42 W/m2
06:34 65.4 °F /  18.6 °C 64.3 °F /  17.9 °C 29.85in /  1010.7hPa Calm     96% 0.00in /  0mm 44 W/m2
06:39 65.7 °F /  18.7 °C 64.6 °F /  18.1 °C 29.86in /  1011.1hPa West 0.1mph /  0.2km/h 3mph /  4.8km/h 96.3% 0.00in /  0mm 49 W/m2
06:44 66 °F /  18.9 °C 65.1 °F /  18.4 °C 29.86in /  1011.1hPa Calm   3mph /  4.8km/h 97% 0.00in /  0mm 54 W/m2
06:49 66.2 °F /  19 °C 65.3 °F /  18.5 °C 29.86in /  1011.1hPa Calm   3mph /  4.8km/h 97% 0.00in /  0mm 58 W/m2
06:54 66.4 °F /  19.1 °C 65.5 °F /  18.6 °C 29.86in /  1011.1hPa Calm   3mph /  4.8km/h 97% 0.00in /  0mm 60 W/m2
06:59 66.7 °F /  19.3 °C 65.8 °F /  18.8 °C 29.86in /  1011.1hPa Calm   3mph /  4.8km/h 97% 0.00in /  0mm 62 W/m2
07:04 67 °F /  19.4 °C 66.1 °F /  18.9 °C 29.86in /  1011.1hPa Calm   3mph /  4.8km/h 97% 0.00in /  0mm 65 W/m2
07:09 67.3 °F /  19.6 °C 66.4 °F /  19.1 °C 29.86in /  1011.1hPa Calm     97% 0.00in /  0mm 69 W/m2
07:14 67.7 °F /  19.8 °C 66.6 °F /  19.2 °C 29.86in /  1011.1hPa Calm     96.4% 0.00in /  0mm 98 W/m2
07:19 68.2 °F /  20.1 °C 67 °F /  19.4 °C 29.87in /  1011.4hPa Calm     96% 0.00in /  0mm 267 W/m2
07:24 68.7 °F /  20.4 °C 67.4 °F /  19.7 °C 29.87in /  1011.4hPa Calm     95.6% 0.00in /  0mm 290 W/m2
07:29 69.3 °F /  20.7 °C 67.6 °F /  19.8 °C 29.87in /  1011.4hPa Calm     94.6% 0.00in /  0mm 315 W/m2
07:34 69.8 °F /  21 °C 67.5 °F /  19.7 °C 29.87in /  1011.4hPa Calm   1mph /  1.6km/h 92.4% 0.00in /  0mm 338 W/m2
07:39 70.3 °F /  21.3 °C 67.1 °F /  19.5 °C 29.87in /  1011.4hPa Calm   1mph /  1.6km/h 89.5% 0.00in /  0mm 345 W/m2
07:44 70.8 °F /  21.6 °C 66.7 °F /  19.3 °C 29.87in /  1011.4hPa Calm   3mph /  4.8km/h 86.8% 0.00in /  0mm 359 W/m2
07:49 71.2 °F /  21.8 °C 66 °F /  18.9 °C 29.87in /  1011.4hPa West 0.4mph /  0.6km/h 5mph /  8km/h 83.8% 0.00in /  0mm 387 W/m2
07:54 71.5 °F /  21.9 °C 66.3 °F /  19.1 °C 29.87in /  1011.4hPa NW 0.8mph /  1.3km/h 7mph /  11.3km/h 83.6% 0.00in /  0mm 408 W/m2
07:59 71.9 °F /  22.2 °C 65.6 °F /  18.7 °C 29.88in /  1011.7hPa NW 2.4mph /  3.9km/h 10mph /  16.1km/h 80.3% 0.00in /  0mm 424 W/m2
08:00 72.2 °F /  22.3 °C 65.3 °F /  18.5 °C 29.87in /  1011.4hPa Calm   10mph /  16.1km/h 79% 0.00in /  0mm 427 W/m2
08:09 72.8 °F /  22.7 °C 65.7 °F /  18.7 °C 29.88in /  1011.7hPa WNW 1.2mph /  1.9km/h 6mph /  9.7km/h 78.5% 0.00in /  0mm 459 W/m2
08:14 73 °F /  22.8 °C 65.3 °F /  18.5 °C 29.88in /  1011.7hPa WNW 2.8mph /  4.5km/h 12mph /  19.3km/h 76.7% 0.00in /  0mm 475 W/m2
08:19 73.2 °F /  22.9 °C 64 °F /  17.8 °C 29.88in /  1011.7hPa WNW 4.9mph /  7.9km/h 12mph /  19.3km/h 72.9% 0.00in /  0mm 494 W/m2
08:24 73.3 °F /  22.9 °C 63.8 °F /  17.7 °C 29.88in /  1011.7hPa WNW 3.8mph /  6.1km/h 12mph /  19.3km/h 72.2% 0.00in /  0mm 512 W/m2
08:29 73.5 °F /  23.1 °C 63.4 °F /  17.4 °C 29.88in /  1011.7hPa NW 2.2mph /  3.5km/h 12mph /  19.3km/h 70.7% 0.00in /  0mm 526 W/m2
08:34 73.5 °F /  23.1 °C 63.5 °F /  17.5 °C 29.88in /  1011.7hPa NW 3.5mph /  5.6km/h 12mph /  19.3km/h 71% 0.00in /  0mm 545 W/m2
08:39 73.6 °F /  23.1 °C 63.5 °F /  17.5 °C 29.88in /  1011.7hPa NW 3.1mph /  5km/h 12mph /  19.3km/h 70.6% 0.00in /  0mm 563 W/m2
08:44 73.8 °F /  23.2 °C 63.2 °F /  17.3 °C 29.88in /  1011.7hPa WNW 2.6mph /  4.2km/h 12mph /  19.3km/h 69.5% 0.00in /  0mm 578 W/m2
08:49 74.1 °F /  23.4 °C 63.4 °F /  17.4 °C 29.88in /  1011.7hPa WNW 3.4mph /  5.5km/h 12mph /  19.3km/h 69.4% 0.00in /  0mm 592 W/m2
08:54 74.3 °F /  23.5 °C 63.1 °F /  17.3 °C 29.88in /  1011.7hPa WNW 2.5mph /  4km/h 12mph /  19.3km/h 68% 0.00in /  0mm 608 W/m2
08:59 74.5 °F /  23.6 °C 63.4 °F /  17.4 °C 29.88in /  1011.7hPa WNW 1.7mph /  2.7km/h 12mph /  19.3km/h 68.3% 0.00in /  0mm 626 W/m2
09:04 75 °F /  23.9 °C 64.4 °F /  18 °C 29.88in /  1011.7hPa NW 0.9mph /  1.4km/h 12mph /  19.3km/h 69.6% 0.00in /  0mm 643 W/m2
09:09 75.5 °F /  24.2 °C 63.9 °F /  17.7 °C 29.88in /  1011.7hPa WNW 2.7mph /  4.3km/h 7mph /  11.3km/h 67.2% 0.00in /  0mm 654 W/m2
09:14 75.8 °F /  24.3 °C 64.3 °F /  17.9 °C 29.88in /  1011.7hPa WNW 1.9mph /  3.1km/h 7mph /  11.3km/h 67.4% 0.00in /  0mm 666 W/m2
09:19 76 °F /  24.4 °C 64.2 °F /  17.9 °C 29.89in /  1012.1hPa NW 2.6mph /  4.2km/h 11mph /  17.7km/h 66.9% 0.00in /  0mm 694 W/m2
09:24 76.3 °F /  24.6 °C 63.9 °F /  17.7 °C 29.89in /  1012.1hPa NW 3.5mph /  5.6km/h 11mph /  17.7km/h 65.4% 0.00in /  0mm 696 W/m2
09:29 76.6 °F /  24.8 °C 63.1 °F /  17.3 °C 29.89in /  1012.1hPa WNW 3.9mph /  6.3km/h 11mph /  17.7km/h 63.1% 0.00in /  0mm 715 W/m2
09:34 76.6 °F /  24.8 °C 62.9 °F /  17.2 °C 29.89in /  1012.1hPa NW 3mph /  4.8km/h 13mph /  20.9km/h 62.7% 0.00in /  0mm 733 W/m2
09:39 76.5 °F /  24.7 °C 62.4 °F /  16.9 °C 29.89in /  1012.1hPa NW 3.5mph /  5.6km/h 13mph /  20.9km/h 61.7% 0.00in /  0mm 758 W/m2
09:44 76.5 °F /  24.7 °C 63.4 °F /  17.4 °C 29.89in /  1012.1hPa NW 0.9mph /  1.4km/h 13mph /  20.9km/h 63.9% 0.00in /  0mm 763 W/m2
09:49 76.7 °F /  24.8 °C 62.3 °F /  16.8 °C 29.89in /  1012.1hPa West 6.5mph /  10.5km/h 13mph /  20.9km/h 61.1% 0.00in /  0mm 772 W/m2
09:54 76.5 °F /  24.7 °C 61 °F /  16.1 °C 29.90in /  1012.4hPa WNW 7.1mph /  11.4km/h 15mph /  24.1km/h 58.7% 0.00in /  0mm 779 W/m2
09:59 76.4 °F /  24.7 °C 61.1 °F /  16.2 °C 29.90in /  1012.4hPa WNW 3mph /  4.8km/h 15mph /  24.1km/h 59.3% 0.00in /  0mm 788 W/m2
10:04 76.6 °F /  24.8 °C 62.3 °F /  16.8 °C 29.90in /  1012.4hPa NW 1.4mph /  2.3km/h 15mph /  24.1km/h 61.4% 0.00in /  0mm 800 W/m2
10:09 76.8 °F /  24.9 °C 60.7 °F /  15.9 °C 29.90in /  1012.4hPa WNW 5.6mph /  9km/h 13mph /  20.9km/h 57.6% 0.00in /  0mm 817 W/m2
10:14 76.7 °F /  24.8 °C 59.1 °F /  15.1 °C 29.90in /  1012.4hPa WNW 8.1mph /  13km/h 16mph /  25.7km/h 54.5% 0.00in /  0mm 833 W/m2
10:19 76.4 °F /  24.7 °C 58.5 °F /  14.7 °C 29.90in /  1012.4hPa WNW 5.7mph /  9.2km/h 16mph /  25.7km/h 53.8% 0.00in /  0mm 842 W/m2
10:24 76.3 °F /  24.6 °C 58.4 °F /  14.7 °C 29.90in /  1012.4hPa NW 6.6mph /  10.6km/h 17mph /  27.4km/h 53.9% 0.00in /  0mm 853 W/m2
10:29 76.3 °F /  24.6 °C 58 °F /  14.4 °C 29.90in /  1012.4hPa NW 6.6mph /  10.6km/h 17mph /  27.4km/h 53.2% 0.00in /  0mm 865 W/m2
10:34 76.6 °F /  24.8 °C 58.5 °F /  14.7 °C 29.90in /  1012.4hPa WNW 3.7mph /  6km/h 17mph /  27.4km/h 53.5% 0.00in /  0mm 874 W/m2
10:39 76.8 °F /  24.9 °C 57.2 °F /  14 °C 29.91in /  1012.8hPa WNW 6.5mph /  10.5km/h 15mph /  24.1km/h 50.9% 0.00in /  0mm 884 W/m2
10:44 76.8 °F /  24.9 °C 57.4 °F /  14.1 °C 29.91in /  1012.8hPa NW 4.9mph /  7.9km/h 15mph /  24.1km/h 51.1% 0.00in /  0mm 893 W/m2
10:48 76.9 °F /  24.9 °C 56.9 °F /  13.8 °C 29.91in /  1012.8hPa WNW 8.4mph /  13.5km/h 19mph /  30.6km/h 50.1% 0.00in /  0mm 902 W/m2
11:00 76.4 °F /  24.7 °C 55.8 °F /  13.2 °C 29.91in /  1012.8hPa NW 7mph /  11.3km/h 21mph /  33.8km/h 49% 0.00in /  0mm 894 W/m2
11:30 76.9 °F /  24.9 °C 54.6 °F /  12.6 °C 29.91in /  1012.8hPa NW 8mph /  12.9km/h 19mph /  30.6km/h 46% 0.00in /  0mm 949 W/m2
12:03 77.9 °F /  25.5 °C 56.1 °F /  13.4 °C 29.91in /  1012.8hPa NW 5mph /  8km/h 8mph /  12.9km/h 47% 0.00in /  0mm 995 W/m2
Hartford County Weather
Compliments of Weather Underground - 2 mb